Minneapolis, MN (55435)

2:52 AM CST on January 19, 2017 (GMT -0600)
Edina: Fred Richards Park | | Change Station

Elev 835 ft 44.87 °N, 93.34 °W | Updated 2 seconds ago

Partly Cloudy
Partly Cloudy
31.2 °F
Feels Like 31 °F
N
0.0
Wind Variable Wind from North
Gusts 0.0 mph

Today
High -- | Low -- °F
--% Chance of Precip.
Yesterday
High -- | Low -- °F
Precip. -- in
Pressure 29.85 in
Visibility 6.0 miles
Clouds Clear
Windchill 31 °F
Dew Point 30 °F
Humidity 94%
Rainfall 0.00 in
Snow Depth Not available.
7:44 AM 5:04 PM
Waning Gibbous, 55% visible
METAR KMSP 190753Z 14005KT 6SM BR CLR 00/M02 A2982 RMK AO2 SLP106 T00001017
Pressure 29.85 in
Visibility 6.0 miles
Clouds Clear
Windchill 31 °F
Dew Point 30 °F
Humidity 94%
Rainfall 0.00 in
Snow Depth Not available.
7:44 AM 5:04 PM
Waning Gibbous, 55% visible
METAR KMSP 190753Z 14005KT 6SM BR CLR 00/M02 A2982 RMK AO2 SLP106 T00001017

Get Your Daily Forecast Email!

Thanks for signing up!

Be on the lookout for a verification email in your inbox.

You'll start receiving the daily forecast at 8 AM.

×

10-Day Weather Forecast

Almanac

Astronomy

Jan. 19, 2017 Rise Set
Actual Time
Civil Twilight
Nautical Twilight
Astronomical Twilight
Moon
Length of Visible Light
Length of Day
Tomorrow will be .
, % of the Moon is Illuminated

Today's Extremes

State Highs State Lows

Community

WunderPhotos

Upload Photos

1,962,540 photos uploaded!

WunderBlog® & News

Nearby

Air Quality

  Air Quality AQ Index Pollutant
Not available.

Snow Depth

Station Depth Elevation

Earthquake Activity

City Distance Mag. Time & Date
Minimum magnitude displayed is 2.5.

Coastal Water Temperatures

Place Temperature

Stations

Nearby Weather Stations

Station Location Temp. Windchill Dew Point Humidity Wind Precip. Elev Updated Type
                   

Watches & Warnings

There are currently no watches in effect.